sensor_id;sensor_type;location;lat;lon;timestamp;pressure;altitude;pressure_sealevel;temperature;humidity
19884;BME280;10104;50.732;10.174;2022-11-15T00:02:13;97650.09;;;11.02;88.15
19884;BME280;10104;50.732;10.174;2022-11-15T00:04:35;97645.38;;;10.97;88.62
19884;BME280;10104;50.732;10.174;2022-11-15T00:06:56;97648.50;;;11.14;87.35
19884;BME280;10104;50.732;10.174;2022-11-15T00:09:18;97640.44;;;11.28;86.35
19884;BME280;10104;50.732;10.174;2022-11-15T00:11:39;97641.19;;;11.16;87.22
19884;BME280;10104;50.732;10.174;2022-11-15T00:14:01;97641.34;;;11.08;87.89
19884;BME280;10104;50.732;10.174;2022-11-15T00:16:24;97635.41;;;11.06;88.13
19884;BME280;10104;50.732;10.174;2022-11-15T00:18:46;97638.66;;;11.01;88.48
19884;BME280;10104;50.732;10.174;2022-11-15T00:21:12;97643.13;;;10.94;88.93
19884;BME280;10104;50.732;10.174;2022-11-15T00:23:33;97641.34;;;11.08;88.26
19884;BME280;10104;50.732;10.174;2022-11-15T00:25:56;97637.25;;;11.05;88.58
19884;BME280;10104;50.732;10.174;2022-11-15T00:28:18;97632.84;;;11.19;87.73
19884;BME280;10104;50.732;10.174;2022-11-15T00:30:40;97631.69;;;11.34;86.73
19884;BME280;10104;50.732;10.174;2022-11-15T00:33:05;97629.59;;;11.30;87.11
19884;BME280;10104;50.732;10.174;2022-11-15T00:35:26;97636.50;;;11.24;87.61
19884;BME280;10104;50.732;10.174;2022-11-15T00:37:48;97626.94;;;11.30;87.20
19884;BME280;10104;50.732;10.174;2022-11-15T00:40:10;97625.78;;;11.39;86.46
19884;BME280;10104;50.732;10.174;2022-11-15T00:42:31;97619.00;;;11.30;86.92
19884;BME280;10104;50.732;10.174;2022-11-15T00:44:53;97617.78;;;11.26;87.49
19884;BME280;10104;50.732;10.174;2022-11-15T00:47:14;97615.53;;;11.29;87.24
19884;BME280;10104;50.732;10.174;2022-11-15T00:49:36;97621.06;;;11.28;87.53
19884;BME280;10104;50.732;10.174;2022-11-15T00:51:57;97610.50;;;11.41;86.81
19884;BME280;10104;50.732;10.174;2022-11-15T00:54:19;97609.44;;;11.29;87.57
19884;BME280;10104;50.732;10.174;2022-11-15T00:56:40;97606.13;;;11.20;88.16
19884;BME280;10104;50.732;10.174;2022-11-15T00:59:02;97608.63;;;11.28;87.99
19884;BME280;10104;50.732;10.174;2022-11-15T01:01:23;97614.47;;;11.17;88.39
19884;BME280;10104;50.732;10.174;2022-11-15T01:03:45;97610.03;;;11.31;87.66
19884;BME280;10104;50.732;10.174;2022-11-15T01:06:09;97618.84;;;11.45;87.15
19884;BME280;10104;50.732;10.174;2022-11-15T01:08:31;97620.91;;;11.49;86.33
19884;BME280;10104;50.732;10.174;2022-11-15T01:10:52;97616.03;;;11.59;85.80
19884;BME280;10104;50.732;10.174;2022-11-15T01:13:14;97612.16;;;11.62;85.50
19884;BME280;10104;50.732;10.174;2022-11-15T01:15:39;97620.91;;;11.56;85.87
19884;BME280;10104;50.732;10.174;2022-11-15T01:18:01;97614.22;;;11.66;85.38
19884;BME280;10104;50.732;10.174;2022-11-15T01:20:22;97624.19;;;11.64;85.15
19884;BME280;10104;50.732;10.174;2022-11-15T01:22:44;97619.53;;;11.80;84.22
19884;BME280;10104;50.732;10.174;2022-11-15T01:25:06;97617.31;;;11.83;83.94
19884;BME280;10104;50.732;10.174;2022-11-15T01:27:27;97624.81;;;11.66;84.56
19884;BME280;10104;50.732;10.174;2022-11-15T01:29:48;97620.31;;;11.67;84.14
19884;BME280;10104;50.732;10.174;2022-11-15T01:32:10;97619.47;;;11.47;84.78
19884;BME280;10104;50.732;10.174;2022-11-15T01:34:32;97608.47;;;11.50;84.38
19884;BME280;10104;50.732;10.174;2022-11-15T01:36:53;97607.41;;;11.38;85.03
19884;BME280;10104;50.732;10.174;2022-11-15T01:39:15;97613.69;;;11.23;85.67
19884;BME280;10104;50.732;10.174;2022-11-15T01:41:36;97609.16;;;11.17;86.06
19884;BME280;10104;50.732;10.174;2022-11-15T01:46:54;97612.91;;;11.36;84.43
19884;BME280;10104;50.732;10.174;2022-11-15T01:49:21;97613.09;;;11.28;84.98
19884;BME280;10104;50.732;10.174;2022-11-15T01:51:42;97603.47;;;11.14;85.74
19884;BME280;10104;50.732;10.174;2022-11-15T01:54:08;97605.22;;;10.93;86.55
19884;BME280;10104;50.732;10.174;2022-11-15T01:56:36;97609.25;;;10.83;87.69
19884;BME280;10104;50.732;10.174;2022-11-15T01:59:03;97603.47;;;10.66;88.20
19884;BME280;10104;50.732;10.174;2022-11-15T02:01:26;97597.31;;;10.59;88.64
19884;BME280;10104;50.732;10.174;2022-11-15T02:03:57;97591.97;;;10.52;89.39
19884;BME280;10104;50.732;10.174;2022-11-15T02:06:21;97590.56;;;10.57;88.75
19884;BME280;10104;50.732;10.174;2022-11-15T02:08:43;97590.34;;;10.51;88.88
19884;BME280;10104;50.732;10.174;2022-11-15T02:11:08;97591.66;;;10.34;89.95
19884;BME280;10104;50.732;10.174;2022-11-15T02:13:30;97588.88;;;10.42;89.60
19884;BME280;10104;50.732;10.174;2022-11-15T02:15:59;97591.31;;;10.44;89.40
19884;BME280;10104;50.732;10.174;2022-11-15T02:18:35;97582.84;;;10.55;88.33
19884;BME280;10104;50.732;10.174;2022-11-15T02:21:13;97581.47;;;10.66;87.93
19884;BME280;10104;50.732;10.174;2022-11-15T02:32:40;97561.72;;;10.34;89.54
19884;BME280;10104;50.732;10.174;2022-11-15T02:37:51;97562.16;;;10.09;91.38
19884;BME280;10104;50.732;10.174;2022-11-15T02:42:54;97562.88;;;10.25;90.43
19884;BME280;10104;50.732;10.174;2022-11-15T02:45:41;97559.44;;;10.24;90.17
19884;BME280;10104;50.732;10.174;2022-11-15T02:48:07;97563.75;;;10.32;89.41
19884;BME280;10104;50.732;10.174;2022-11-15T02:50:31;97550.66;;;10.17;90.45
19884;BME280;10104;50.732;10.174;2022-11-15T02:52:53;97553.81;;;10.12;90.79
19884;BME280;10104;50.732;10.174;2022-11-15T02:55:30;97553.03;;;10.12;90.19
19884;BME280;10104;50.732;10.174;2022-11-15T03:00:34;97556.13;;;9.94;91.34
19884;BME280;10104;50.732;10.174;2022-11-15T03:06:12;97557.50;;;10.11;90.06
19884;BME280;10104;50.732;10.174;2022-11-15T03:08:44;97556.63;;;10.04;90.55
19884;BME280;10104;50.732;10.174;2022-11-15T03:11:15;97553.53;;;10.22;89.70
19884;BME280;10104;50.732;10.174;2022-11-15T03:18:37;97554.25;;;10.44;88.11
19884;BME280;10104;50.732;10.174;2022-11-15T03:21:02;97556.28;;;10.42;88.15
19884;BME280;10104;50.732;10.174;2022-11-15T03:23:25;97553.97;;;10.32;88.01
19884;BME280;10104;50.732;10.174;2022-11-15T03:25:50;97552.63;;;10.43;87.63
19884;BME280;10104;50.732;10.174;2022-11-15T03:28:14;97547.56;;;10.48;87.57
19884;BME280;10104;50.732;10.174;2022-11-15T03:30:38;97557.56;;;10.52;87.07
19884;BME280;10104;50.732;10.174;2022-11-15T03:33:02;97551.00;;;10.42;86.95
19884;BME280;10104;50.732;10.174;2022-11-15T03:35:27;97541.72;;;10.25;87.70
19884;BME280;10104;50.732;10.174;2022-11-15T03:37:57;97536.75;;;10.15;87.70
19884;BME280;10104;50.732;10.174;2022-11-15T03:40:25;97547.09;;;10.38;87.02
19884;BME280;10104;50.732;10.174;2022-11-15T03:43:10;97551.31;;;9.77;86.93
19884;BME280;10104;50.732;10.174;2022-11-15T03:45:51;97537.22;;;9.69;87.67
19884;BME280;10104;50.732;10.174;2022-11-15T03:48:21;97537.25;;;9.48;88.21
19884;BME280;10104;50.732;10.174;2022-11-15T03:50:45;97533.28;;;9.59;88.42
19884;BME280;10104;50.732;10.174;2022-11-15T03:53:07;97531.28;;;9.61;87.95
19884;BME280;10104;50.732;10.174;2022-11-15T03:55:31;97532.47;;;9.58;88.12
19884;BME280;10104;50.732;10.174;2022-11-15T03:57:56;97531.22;;;9.54;88.20
19884;BME280;10104;50.732;10.174;2022-11-15T04:00:19;97538.75;;;9.57;88.79
19884;BME280;10104;50.732;10.174;2022-11-15T04:02:40;97535.78;;;9.67;88.00
19884;BME280;10104;50.732;10.174;2022-11-15T04:05:02;97537.38;;;9.61;88.16
19884;BME280;10104;50.732;10.174;2022-11-15T04:07:24;97537.56;;;9.39;88.62
19884;BME280;10104;50.732;10.174;2022-11-15T04:09:45;97529.50;;;9.47;88.57
19884;BME280;10104;50.732;10.174;2022-11-15T04:12:26;97537.47;;;9.25;89.11
19884;BME280;10104;50.732;10.174;2022-11-15T04:14:54;97534.31;;;9.37;88.16
19884;BME280;10104;50.732;10.174;2022-11-15T04:17:28;97536.72;;;9.31;87.46
19884;BME280;10104;50.732;10.174;2022-11-15T04:19:49;97531.47;;;9.38;87.06
19884;BME280;10104;50.732;10.174;2022-11-15T04:22:29;97529.84;;;9.37;87.11
19884;BME280;10104;50.732;10.174;2022-11-15T04:25:09;97533.09;;;9.39;87.11
19884;BME280;10104;50.732;10.174;2022-11-15T04:27:31;97523.63;;;9.23;87.79
19884;BME280;10104;50.732;10.174;2022-11-15T04:29:52;97530.91;;;9.21;87.11
19884;BME280;10104;50.732;10.174;2022-11-15T04:32:14;97526.50;;;9.28;86.75
19884;BME280;10104;50.732;10.174;2022-11-15T04:34:35;97526.69;;;9.27;86.84
19884;BME280;10104;50.732;10.174;2022-11-15T04:36:57;97521.72;;;9.17;87.54
19884;BME280;10104;50.732;10.174;2022-11-15T04:39:34;97510.22;;;9.25;87.04
19884;BME280;10104;50.732;10.174;2022-11-15T04:41:55;97519.91;;;9.18;87.21
19884;BME280;10104;50.732;10.174;2022-11-15T04:44:17;97511.81;;;9.19;86.92
19884;BME280;10104;50.732;10.174;2022-11-15T04:46:38;97503.66;;;9.21;86.77
19884;BME280;10104;50.732;10.174;2022-11-15T04:48:59;97508.13;;;9.20;86.76
19884;BME280;10104;50.732;10.174;2022-11-15T04:51:21;97497.78;;;9.19;86.82
19884;BME280;10104;50.732;10.174;2022-11-15T04:53:42;97503.31;;;9.24;86.54
19884;BME280;10104;50.732;10.174;2022-11-15T04:56:04;97497.38;;;9.22;86.46
19884;BME280;10104;50.732;10.174;2022-11-15T04:58:25;97499.47;;;9.05;87.29
19884;BME280;10104;50.732;10.174;2022-11-15T05:00:47;97492.09;;;9.01;87.40
19884;BME280;10104;50.732;10.174;2022-11-15T05:03:09;97495.34;;;9.03;87.16
19884;BME280;10104;50.732;10.174;2022-11-15T05:05:50;97495.19;;;9.04;86.82
19884;BME280;10104;50.732;10.174;2022-11-15T05:08:11;97486.94;;;8.92;88.56
19884;BME280;10104;50.732;10.174;2022-11-15T05:10:33;97494.34;;;9.04;88.14
19884;BME280;10104;50.732;10.174;2022-11-15T05:12:54;97498.00;;;9.03;87.70
19884;BME280;10104;50.732;10.174;2022-11-15T05:15:16;97493.47;;;8.97;87.42
19884;BME280;10104;50.732;10.174;2022-11-15T05:17:37;97483.84;;;8.89;87.74
19884;BME280;10104;50.732;10.174;2022-11-15T05:19:59;97489.66;;;8.99;87.76
19884;BME280;10104;50.732;10.174;2022-11-15T05:22:20;97486.19;;;8.99;87.22
19884;BME280;10104;50.732;10.174;2022-11-15T05:24:42;97492.00;;;8.73;86.31
19884;BME280;10104;50.732;10.174;2022-11-15T05:27:03;97502.41;;;8.60;85.81
19884;BME280;10104;50.732;10.174;2022-11-15T05:29:25;97496.56;;;8.64;86.12
19884;BME280;10104;50.732;10.174;2022-11-15T05:31:46;97489.66;;;8.63;86.03
19884;BME280;10104;50.732;10.174;2022-11-15T05:34:08;97489.50;;;8.50;88.60
19884;BME280;10104;50.732;10.174;2022-11-15T05:36:37;97487.44;;;8.45;90.20
19884;BME280;10104;50.732;10.174;2022-11-15T05:38:59;97484.78;;;8.45;91.22
19884;BME280;10104;50.732;10.174;2022-11-15T05:41:25;97479.31;;;8.47;92.46
19884;BME280;10104;50.732;10.174;2022-11-15T05:43:48;97474.84;;;8.47;93.32
19884;BME280;10104;50.732;10.174;2022-11-15T05:46:12;97476.41;;;8.42;95.34
19884;BME280;10104;50.732;10.174;2022-11-15T05:48:35;97472.97;;;8.41;95.60
19884;BME280;10104;50.732;10.174;2022-11-15T05:50:59;97475.28;;;8.66;94.60
19884;BME280;10104;50.732;10.174;2022-11-15T05:53:22;97481.28;;;8.60;95.15
19884;BME280;10104;50.732;10.174;2022-11-15T05:55:44;97472.88;;;8.71;94.86
19884;BME280;10104;50.732;10.174;2022-11-15T05:58:06;97476.63;;;8.76;94.89
19884;BME280;10104;50.732;10.174;2022-11-15T06:00:28;97481.03;;;8.90;94.07
19884;BME280;10104;50.732;10.174;2022-11-15T06:02:49;97477.31;;;8.85;94.42
19884;BME280;10104;50.732;10.174;2022-11-15T06:05:11;97477.97;;;8.72;95.17
19884;BME280;10104;50.732;10.174;2022-11-15T06:07:33;97481.16;;;8.82;94.91
19884;BME280;10104;50.732;10.174;2022-11-15T06:09:54;97487.69;;;9.08;93.55
19884;BME280;10104;50.732;10.174;2022-11-15T06:12:16;97487.69;;;9.08;93.53
19884;BME280;10104;50.732;10.174;2022-11-15T06:14:37;97500.81;;;9.01;94.54
19884;BME280;10104;50.732;10.174;2022-11-15T06:16:59;97496.53;;;8.79;96.33
19884;BME280;10104;50.732;10.174;2022-11-15T06:19:20;97493.72;;;8.80;96.75
19884;BME280;10104;50.732;10.174;2022-11-15T06:21:42;97493.78;;;9.08;95.64
19884;BME280;10104;50.732;10.174;2022-11-15T06:24:04;97492.53;;;9.04;95.13
19884;BME280;10104;50.732;10.174;2022-11-15T06:26:26;97499.00;;;9.02;95.31
19884;BME280;10104;50.732;10.174;2022-11-15T06:28:47;97503.53;;;9.29;93.78
19884;BME280;10104;50.732;10.174;2022-11-15T06:31:10;97505.63;;;9.33;93.05
19884;BME280;10104;50.732;10.174;2022-11-15T06:33:32;97507.63;;;9.53;91.76
19884;BME280;10104;50.732;10.174;2022-11-15T06:35:54;97510.66;;;9.50;91.94
19884;BME280;10104;50.732;10.174;2022-11-15T06:38:16;97512.91;;;9.53;91.71
19884;BME280;10104;50.732;10.174;2022-11-15T06:40:38;97511.56;;;9.63;91.36
19884;BME280;10104;50.732;10.174;2022-11-15T06:43:00;97525.22;;;9.67;91.04
19884;BME280;10104;50.732;10.174;2022-11-15T06:45:22;97524.50;;;9.80;90.27
19884;BME280;10104;50.732;10.174;2022-11-15T06:47:46;97523.06;;;9.77;90.47
19884;BME280;10104;50.732;10.174;2022-11-15T06:50:08;97522.34;;;9.90;90.18
19884;BME280;10104;50.732;10.174;2022-11-15T06:52:32;97512.81;;;9.95;89.80
19884;BME280;10104;50.732;10.174;2022-11-15T06:54:53;97519.00;;;10.09;88.84
19884;BME280;10104;50.732;10.174;2022-11-15T06:57:15;97518.63;;;9.84;90.03
19884;BME280;10104;50.732;10.174;2022-11-15T06:59:36;97522.06;;;9.78;90.53
19884;BME280;10104;50.732;10.174;2022-11-15T07:02:01;97520.41;;;9.77;91.00
19884;BME280;10104;50.732;10.174;2022-11-15T07:04:22;97523.25;;;9.75;90.79
19884;BME280;10104;50.732;10.174;2022-11-15T07:06:48;97537.28;;;9.76;91.01
19884;BME280;10104;50.732;10.174;2022-11-15T07:09:10;97525.69;;;9.77;90.95
19884;BME280;10104;50.732;10.174;2022-11-15T07:11:32;97522.09;;;9.85;90.91
19884;BME280;10104;50.732;10.174;2022-11-15T07:13:54;97525.91;;;10.03;89.51
19884;BME280;10104;50.732;10.174;2022-11-15T07:16:15;97524.03;;;9.97;89.65
19884;BME280;10104;50.732;10.174;2022-11-15T07:18:38;97524.47;;;10.07;88.60
19884;BME280;10104;50.732;10.174;2022-11-15T07:21:01;97520.78;;;10.02;88.58
19884;BME280;10104;50.732;10.174;2022-11-15T07:23:23;97522.81;;;10.00;88.13
19884;BME280;10104;50.732;10.174;2022-11-15T07:25:44;97523.25;;;10.03;87.71
19884;BME280;10104;50.732;10.174;2022-11-15T07:28:06;97519.72;;;10.18;86.85
19884;BME280;10104;50.732;10.174;2022-11-15T07:30:28;97523.38;;;10.17;87.14
19884;BME280;10104;50.732;10.174;2022-11-15T07:32:54;97514.78;;;10.14;87.26
19884;BME280;10104;50.732;10.174;2022-11-15T07:35:15;97519.38;;;10.34;86.08
19884;BME280;10104;50.732;10.174;2022-11-15T07:37:37;97517.75;;;10.33;86.23
19884;BME280;10104;50.732;10.174;2022-11-15T07:39:58;97513.47;;;10.32;86.43
19884;BME280;10104;50.732;10.174;2022-11-15T07:42:20;97516.94;;;10.32;85.85
19884;BME280;10104;50.732;10.174;2022-11-15T07:45:00;97513.53;;;10.45;85.18
19884;BME280;10104;50.732;10.174;2022-11-15T07:47:21;97516.22;;;10.51;84.80
19884;BME280;10104;50.732;10.174;2022-11-15T07:49:43;97512.94;;;10.43;85.16
19884;BME280;10104;50.732;10.174;2022-11-15T07:52:04;97519.97;;;10.29;86.34
19884;BME280;10104;50.732;10.174;2022-11-15T07:54:26;97521.88;;;10.14;87.42
19884;BME280;10104;50.732;10.174;2022-11-15T07:56:47;97518.13;;;10.23;87.50
19884;BME280;10104;50.732;10.174;2022-11-15T07:59:08;97527.66;;;10.18;87.57
19884;BME280;10104;50.732;10.174;2022-11-15T08:01:30;97515.84;;;10.20;87.61
19884;BME280;10104;50.732;10.174;2022-11-15T08:03:52;97507.53;;;10.23;87.57
19884;BME280;10104;50.732;10.174;2022-11-15T08:06:13;97511.03;;;10.30;87.23
19884;BME280;10104;50.732;10.174;2022-11-15T08:08:35;97509.97;;;10.25;87.47
19884;BME280;10104;50.732;10.174;2022-11-15T08:10:59;97501.69;;;10.34;87.42
19884;BME280;10104;50.732;10.174;2022-11-15T08:13:21;97499.44;;;10.38;87.11
19884;BME280;10104;50.732;10.174;2022-11-15T08:15:43;97495.38;;;10.35;87.10
19884;BME280;10104;50.732;10.174;2022-11-15T08:18:08;97506.94;;;10.28;87.50
19884;BME280;10104;50.732;10.174;2022-11-15T08:20:30;97506.38;;;10.39;86.81
19884;BME280;10104;50.732;10.174;2022-11-15T08:22:52;97499.47;;;10.10;88.47
19884;BME280;10104;50.732;10.174;2022-11-15T08:25:14;97504.59;;;9.84;90.69
19884;BME280;10104;50.732;10.174;2022-11-15T08:27:35;97504.41;;;9.85;90.92
19884;BME280;10104;50.732;10.174;2022-11-15T08:29:57;97504.72;;;10.03;90.07
19884;BME280;10104;50.732;10.174;2022-11-15T08:32:19;97501.19;;;10.18;89.20
19884;BME280;10104;50.732;10.174;2022-11-15T08:34:41;97497.97;;;10.22;88.57
19884;BME280;10104;50.732;10.174;2022-11-15T08:37:03;97494.69;;;10.20;88.61
19884;BME280;10104;50.732;10.174;2022-11-15T08:39:24;97493.78;;;10.13;89.10
19884;BME280;10104;50.732;10.174;2022-11-15T08:41:45;97485.81;;;10.34;88.20
19884;BME280;10104;50.732;10.174;2022-11-15T08:44:07;97479.00;;;10.19;89.08
19884;BME280;10104;50.732;10.174;2022-11-15T08:46:28;97482.94;;;10.29;88.64
19884;BME280;10104;50.732;10.174;2022-11-15T08:48:50;97485.66;;;10.42;87.83
19884;BME280;10104;50.732;10.174;2022-11-15T08:51:11;97473.63;;;10.46;87.77
19884;BME280;10104;50.732;10.174;2022-11-15T08:53:33;97470.84;;;10.61;87.17
19884;BME280;10104;50.732;10.174;2022-11-15T08:55:55;97469.84;;;10.69;87.03
19884;BME280;10104;50.732;10.174;2022-11-15T08:58:16;97466.63;;;10.80;86.78
19884;BME280;10104;50.732;10.174;2022-11-15T09:00:38;97466.88;;;10.91;86.03
19884;BME280;10104;50.732;10.174;2022-11-15T09:02:59;97463.22;;;11.06;84.95
19884;BME280;10104;50.732;10.174;2022-11-15T09:05:21;97457.31;;;11.23;83.38
19884;BME280;10104;50.732;10.174;2022-11-15T09:07:42;97455.28;;;11.25;83.24
19884;BME280;10104;50.732;10.174;2022-11-15T09:10:04;97449.78;;;11.33;82.56
19884;BME280;10104;50.732;10.174;2022-11-15T09:12:26;97448.56;;;11.43;81.99
19884;BME280;10104;50.732;10.174;2022-11-15T09:14:47;97459.59;;;11.33;83.18
19884;BME280;10104;50.732;10.174;2022-11-15T09:17:09;97447.34;;;11.45;82.18
19884;BME280;10104;50.732;10.174;2022-11-15T09:19:31;97445.72;;;11.51;81.57
19884;BME280;10104;50.732;10.174;2022-11-15T09:21:52;97443.25;;;11.43;82.42
19884;BME280;10104;50.732;10.174;2022-11-15T09:24:14;97450.81;;;11.59;81.48
19884;BME280;10104;50.732;10.174;2022-11-15T09:26:35;97455.09;;;11.47;82.33
19884;BME280;10104;50.732;10.174;2022-11-15T09:28:57;97445.50;;;11.52;82.44
19884;BME280;10104;50.732;10.174;2022-11-15T09:31:18;97447.97;;;11.47;82.50
19884;BME280;10104;50.732;10.174;2022-11-15T09:33:45;97444.06;;;11.36;83.58
19884;BME280;10104;50.732;10.174;2022-11-15T09:36:08;97446.31;;;11.46;83.74
19884;BME280;10104;50.732;10.174;2022-11-15T09:38:30;97442.03;;;11.58;82.87
19884;BME280;10104;50.732;10.174;2022-11-15T09:41:08;97435.28;;;11.49;83.47
19884;BME280;10104;50.732;10.174;2022-11-15T09:47:01;97438.78;;;11.50;83.99
19884;BME280;10104;50.732;10.174;2022-11-15T09:49:15;97435.72;;;11.72;83.92
19884;BME280;10104;50.732;10.174;2022-11-15T09:51:39;97426.72;;;11.80;83.25
19884;BME280;10104;50.732;10.174;2022-11-15T09:56:50;97413.44;;;11.93;83.31
19884;BME280;10104;50.732;10.174;2022-11-15T10:00:08;97406.75;;;11.84;83.81
19884;BME280;10104;50.732;10.174;2022-11-15T10:02:58;97409.53;;;12.09;82.96
19884;BME280;10104;50.732;10.174;2022-11-15T10:05:25;97407.41;;;12.24;82.10
19884;BME280;10104;50.732;10.174;2022-11-15T10:10:38;97399.34;;;12.50;81.47
19884;BME280;10104;50.732;10.174;2022-11-15T10:13:01;97399.34;;;12.50;81.40
19884;BME280;10104;50.732;10.174;2022-11-15T10:15:23;97394.13;;;12.69;81.70
19884;BME280;10104;50.732;10.174;2022-11-15T10:18:07;97391.38;;;12.82;80.11
19884;BME280;10104;50.732;10.174;2022-11-15T10:20:47;97388.56;;;12.77;81.44
19884;BME280;10104;50.732;10.174;2022-11-15T10:23:13;97384.84;;;12.78;80.69
19884;BME280;10104;50.732;10.174;2022-11-15T10:25:35;97383.41;;;12.82;81.32
19884;BME280;10104;50.732;10.174;2022-11-15T10:28:28;97383.25;;;13.08;79.35
19884;BME280;10104;50.732;10.174;2022-11-15T10:30:53;97385.44;;;13.43;76.75
19884;BME280;10104;50.732;10.174;2022-11-15T10:33:35;97377.09;;;13.39;77.57
19884;BME280;10104;50.732;10.174;2022-11-15T10:41:11;97367.94;;;13.28;78.73
19884;BME280;10104;50.732;10.174;2022-11-15T10:43:33;97364.22;;;13.36;78.47
19884;BME280;10104;50.732;10.174;2022-11-15T10:45:54;97355.97;;;13.44;78.95
19884;BME280;10104;50.732;10.174;2022-11-15T10:48:21;97361.03;;;13.46;78.33
19884;BME280;10104;50.732;10.174;2022-11-15T10:50:45;97345.69;;;13.48;78.88
19884;BME280;10104;50.732;10.174;2022-11-15T10:53:33;97338.81;;;13.58;79.10
19884;BME280;10104;50.732;10.174;2022-11-15T10:56:02;97343.78;;;13.55;79.49
19884;BME280;10104;50.732;10.174;2022-11-15T10:58:38;97337.72;;;13.66;78.37
19884;BME280;10104;50.732;10.174;2022-11-15T11:01:13;97331.09;;;13.75;78.23
19884;BME280;10104;50.732;10.174;2022-11-15T11:03:36;97334.69;;;13.99;75.02
19884;BME280;10104;50.732;10.174;2022-11-15T11:06:05;97335.09;;;14.14;73.76
19884;BME280;10104;50.732;10.174;2022-11-15T11:08:27;97328.31;;;14.18;73.41
19884;BME280;10104;50.732;10.174;2022-11-15T11:10:57;97321.19;;;14.30;73.68
19884;BME280;10104;50.732;10.174;2022-11-15T11:13:25;97320.34;;;14.48;71.76
19884;BME280;10104;50.732;10.174;2022-11-15T11:15:47;97316.13;;;14.70;70.10
19884;BME280;10104;50.732;10.174;2022-11-15T11:18:24;97310.88;;;14.64;70.21
19884;BME280;10104;50.732;10.174;2022-11-15T11:20:53;97308.19;;;14.52;71.04
19884;BME280;10104;50.732;10.174;2022-11-15T11:25:50;97299.63;;;14.50;70.57
19884;BME280;10104;50.732;10.174;2022-11-15T11:28:48;97300.50;;;14.85;67.77
19884;BME280;10104;50.732;10.174;2022-11-15T11:34:04;97289.72;;;14.80;68.58
19884;BME280;10104;50.732;10.174;2022-11-15T11:36:53;97286.84;;;14.93;67.12
19884;BME280;10104;50.732;10.174;2022-11-15T11:39:24;97283.72;;;14.85;68.46
19884;BME280;10104;50.732;10.174;2022-11-15T11:44:45;97285.94;;;15.11;65.42
19884;BME280;10104;50.732;10.174;2022-11-15T11:47:30;97278.97;;;15.22;64.50
19884;BME280;10104;50.732;10.174;2022-11-15T11:50:01;97283.94;;;15.18;65.61
19884;BME280;10104;50.732;10.174;2022-11-15T11:52:31;97283.16;;;15.18;66.49
19884;BME280;10104;50.732;10.174;2022-11-15T11:57:51;97280.34;;;15.13;65.90
19884;BME280;10104;50.732;10.174;2022-11-15T12:00:22;97273.41;;;15.23;65.29
19884;BME280;10104;50.732;10.174;2022-11-15T12:05:39;97276.41;;;15.27;65.06
19884;BME280;10104;50.732;10.174;2022-11-15T12:08:15;97274.66;;;15.32;64.65
19884;BME280;10104;50.732;10.174;2022-11-15T12:10:43;97270.72;;;15.47;64.64
19884;BME280;10104;50.732;10.174;2022-11-15T12:13:15;97272.09;;;15.37;64.18
19884;BME280;10104;50.732;10.174;2022-11-15T12:16:29;97275.72;;;15.20;65.96
19884;BME280;10104;50.732;10.174;2022-11-15T12:18:53;97274.56;;;15.27;65.73
19884;BME280;10104;50.732;10.174;2022-11-15T12:21:32;97272.72;;;15.28;66.57
19884;BME280;10104;50.732;10.174;2022-11-15T12:24:02;97261.09;;;15.46;66.30
19884;BME280;10104;50.732;10.174;2022-11-15T12:26:31;97257.41;;;15.35;66.06
19884;BME280;10104;50.732;10.174;2022-11-15T12:29:03;97261.09;;;15.34;65.84
19884;BME280;10104;50.732;10.174;2022-11-15T12:31:38;97252.63;;;15.49;66.28
19884;BME280;10104;50.732;10.174;2022-11-15T12:36:43;97246.47;;;15.60;62.95
19884;BME280;10104;50.732;10.174;2022-11-15T12:39:07;97240.91;;;15.61;63.88
19884;BME280;10104;50.732;10.174;2022-11-15T12:41:35;97240.34;;;15.59;63.90
19884;BME280;10104;50.732;10.174;2022-11-15T12:43:57;97238.00;;;15.51;63.83
19884;BME280;10104;50.732;10.174;2022-11-15T12:48:56;97225.47;;;15.63;62.92
19884;BME280;10104;50.732;10.174;2022-11-15T12:56:44;97216.88;;;15.50;62.89
19884;BME280;10104;50.732;10.174;2022-11-15T12:59:06;97220.47;;;15.44;63.73
19884;BME280;10104;50.732;10.174;2022-11-15T13:06:38;97209.44;;;15.52;63.49
19884;BME280;10104;50.732;10.174;2022-11-15T13:09:00;97196.22;;;15.57;63.06
19884;BME280;10104;50.732;10.174;2022-11-15T13:11:44;97202.34;;;15.69;62.76
19884;BME280;10104;50.732;10.174;2022-11-15T13:17:33;97198.78;;;15.52;61.76
19884;BME280;10104;50.732;10.174;2022-11-15T13:19:59;97194.47;;;15.51;62.59
19884;BME280;10104;50.732;10.174;2022-11-15T13:22:21;97195.09;;;15.53;63.21
19884;BME280;10104;50.732;10.174;2022-11-15T13:25:02;97190.22;;;15.61;62.21
19884;BME280;10104;50.732;10.174;2022-11-15T13:27:24;97193.19;;;15.65;62.66
19884;BME280;10104;50.732;10.174;2022-11-15T13:29:46;97187.81;;;15.76;61.72
19884;BME280;10104;50.732;10.174;2022-11-15T13:32:13;97193.09;;;15.88;62.12
19884;BME280;10104;50.732;10.174;2022-11-15T13:34:37;97188.88;;;15.75;62.22
19884;BME280;10104;50.732;10.174;2022-11-15T13:37:34;97188.03;;;15.75;61.32
19884;BME280;10104;50.732;10.174;2022-11-15T13:40:22;97183.59;;;15.52;62.43
19884;BME280;10104;50.732;10.174;2022-11-15T13:42:44;97183.91;;;15.67;62.26
19884;BME280;10104;50.732;10.174;2022-11-15T13:45:14;97182.19;;;15.90;61.19
19884;BME280;10104;50.732;10.174;2022-11-15T13:47:36;97174.84;;;15.97;60.69
19884;BME280;10104;50.732;10.174;2022-11-15T13:49:58;97172.09;;;15.92;60.32
19884;BME280;10104;50.732;10.174;2022-11-15T13:52:27;97172.25;;;15.85;61.15
19884;BME280;10104;50.732;10.174;2022-11-15T13:55:01;97176.09;;;15.77;61.56
19884;BME280;10104;50.732;10.174;2022-11-15T13:57:48;97174.09;;;15.85;61.14
19884;BME280;10104;50.732;10.174;2022-11-15T14:02:47;97165.59;;;15.59;60.68